sensor_id;sensor_type;location;lat;lon;timestamp;P1;durP1;ratioP1;P2;durP2;ratioP2
17917;SDS011;9084;50.956;3.106;2022-07-25T00:01:10;1.92;;;1.83;;
17917;SDS011;9084;50.956;3.106;2022-07-25T00:03:35;2.60;;;2.17;;
17917;SDS011;9084;50.956;3.106;2022-07-25T00:06:01;2.22;;;2.00;;
17917;SDS011;9084;50.956;3.106;2022-07-25T00:08:29;1.85;;;1.73;;
17917;SDS011;9084;50.956;3.106;2022-07-25T00:10:54;2.17;;;1.98;;
17917;SDS011;9084;50.956;3.106;2022-07-25T00:13:20;3.53;;;2.40;;
17917;SDS011;9084;50.956;3.106;2022-07-25T00:15:46;5.07;;;2.25;;
17917;SDS011;9084;50.956;3.106;2022-07-25T00:18:12;2.35;;;2.15;;
17917;SDS011;9084;50.956;3.106;2022-07-25T00:20:37;2.10;;;1.90;;
17917;SDS011;9084;50.956;3.106;2022-07-25T00:23:03;2.45;;;2.25;;
17917;SDS011;9084;50.956;3.106;2022-07-25T00:25:28;2.65;;;2.45;;
17917;SDS011;9084;50.956;3.106;2022-07-25T00:27:54;3.05;;;2.28;;
17917;SDS011;9084;50.956;3.106;2022-07-25T00:30:20;3.17;;;2.38;;
17917;SDS011;9084;50.956;3.106;2022-07-25T00:32:46;3.58;;;2.20;;
17917;SDS011;9084;50.956;3.106;2022-07-25T00:35:12;2.88;;;2.33;;
17917;SDS011;9084;50.956;3.106;2022-07-25T00:37:38;2.90;;;2.13;;
17917;SDS011;9084;50.956;3.106;2022-07-25T00:40:03;2.47;;;2.28;;
17917;SDS011;9084;50.956;3.106;2022-07-25T00:42:34;2.58;;;2.38;;
17917;SDS011;9084;50.956;3.106;2022-07-25T00:45:02;2.72;;;2.42;;
17917;SDS011;9084;50.956;3.106;2022-07-25T00:47:29;4.30;;;2.40;;
17917;SDS011;9084;50.956;3.106;2022-07-25T00:49:55;4.10;;;2.33;;
17917;SDS011;9084;50.956;3.106;2022-07-25T00:52:22;3.25;;;2.30;;
17917;SDS011;9084;50.956;3.106;2022-07-25T00:54:51;3.50;;;2.30;;
17917;SDS011;9084;50.956;3.106;2022-07-25T00:57:20;3.10;;;2.78;;
17917;SDS011;9084;50.956;3.106;2022-07-25T00:59:46;3.22;;;3.00;;
17917;SDS011;9084;50.956;3.106;2022-07-25T01:02:12;3.83;;;3.42;;
17917;SDS011;9084;50.956;3.106;2022-07-25T01:04:40;3.60;;;3.30;;
17917;SDS011;9084;50.956;3.106;2022-07-25T01:07:08;3.33;;;2.75;;
17917;SDS011;9084;50.956;3.106;2022-07-25T01:09:36;3.60;;;2.80;;
17917;SDS011;9084;50.956;3.106;2022-07-25T01:12:05;3.70;;;2.78;;
17917;SDS011;9084;50.956;3.106;2022-07-25T01:14:31;8.32;;;3.33;;
17917;SDS011;9084;50.956;3.106;2022-07-25T01:17:01;3.50;;;3.20;;
17917;SDS011;9084;50.956;3.106;2022-07-25T01:19:27;4.28;;;3.72;;
17917;SDS011;9084;50.956;3.106;2022-07-25T01:21:55;6.97;;;3.63;;
17917;SDS011;9084;50.956;3.106;2022-07-25T01:24:21;9.85;;;3.47;;
17917;SDS011;9084;50.956;3.106;2022-07-25T01:26:47;4.70;;;3.65;;
17917;SDS011;9084;50.956;3.106;2022-07-25T01:29:13;4.63;;;3.55;;
17917;SDS011;9084;50.956;3.106;2022-07-25T01:31:38;6.60;;;3.88;;
17917;SDS011;9084;50.956;3.106;2022-07-25T01:34:04;5.32;;;3.65;;
17917;SDS011;9084;50.956;3.106;2022-07-25T01:36:29;3.70;;;3.40;;
17917;SDS011;9084;50.956;3.106;2022-07-25T01:38:56;3.47;;;3.13;;
17917;SDS011;9084;50.956;3.106;2022-07-25T01:41:24;3.70;;;3.10;;
17917;SDS011;9084;50.956;3.106;2022-07-25T01:43:51;5.70;;;3.38;;
17917;SDS011;9084;50.956;3.106;2022-07-25T01:46:17;5.32;;;3.33;;
17917;SDS011;9084;50.956;3.106;2022-07-25T01:48:43;4.15;;;3.00;;
17917;SDS011;9084;50.956;3.106;2022-07-25T01:51:09;3.15;;;2.95;;
17917;SDS011;9084;50.956;3.106;2022-07-25T01:53:35;4.30;;;3.17;;
17917;SDS011;9084;50.956;3.106;2022-07-25T01:56:04;2.95;;;2.65;;
17917;SDS011;9084;50.956;3.106;2022-07-25T01:58:33;2.97;;;2.63;;
17917;SDS011;9084;50.956;3.106;2022-07-25T02:01:01;3.97;;;3.22;;
17917;SDS011;9084;50.956;3.106;2022-07-25T02:03:27;3.15;;;2.85;;
17917;SDS011;9084;50.956;3.106;2022-07-25T02:05:59;3.47;;;2.97;;
17917;SDS011;9084;50.956;3.106;2022-07-25T02:08:28;3.25;;;2.95;;
17917;SDS011;9084;50.956;3.106;2022-07-25T02:10:56;3.70;;;3.40;;
17917;SDS011;9084;50.956;3.106;2022-07-25T02:13:22;3.60;;;3.30;;
17917;SDS011;9084;50.956;3.106;2022-07-25T02:15:49;3.53;;;3.22;;
17917;SDS011;9084;50.956;3.106;2022-07-25T02:18:15;4.35;;;3.50;;
17917;SDS011;9084;50.956;3.106;2022-07-25T02:20:41;3.50;;;3.20;;
17917;SDS011;9084;50.956;3.106;2022-07-25T02:23:07;4.15;;;3.30;;
17917;SDS011;9084;50.956;3.106;2022-07-25T02:25:35;3.97;;;3.08;;
17917;SDS011;9084;50.956;3.106;2022-07-25T02:28:00;3.90;;;3.60;;
17917;SDS011;9084;50.956;3.106;2022-07-25T02:30:29;4.78;;;3.35;;
17917;SDS011;9084;50.956;3.106;2022-07-25T02:32:59;4.43;;;3.28;;
17917;SDS011;9084;50.956;3.106;2022-07-25T02:35:26;3.90;;;3.28;;
17917;SDS011;9084;50.956;3.106;2022-07-25T02:37:53;3.55;;;2.83;;
17917;SDS011;9084;50.956;3.106;2022-07-25T02:40:24;3.70;;;3.10;;
17917;SDS011;9084;50.956;3.106;2022-07-25T02:42:50;3.15;;;2.90;;
17917;SDS011;9084;50.956;3.106;2022-07-25T02:45:15;6.45;;;3.20;;
17917;SDS011;9084;50.956;3.106;2022-07-25T02:47:41;3.10;;;2.90;;
17917;SDS011;9084;50.956;3.106;2022-07-25T02:50:07;3.30;;;2.60;;
17917;SDS011;9084;50.956;3.106;2022-07-25T02:52:35;2.60;;;2.30;;
17917;SDS011;9084;50.956;3.106;2022-07-25T02:55:03;2.72;;;2.53;;
17917;SDS011;9084;50.956;3.106;2022-07-25T02:57:32;3.20;;;2.40;;
17917;SDS011;9084;50.956;3.106;2022-07-25T02:59:58;2.85;;;2.63;;
17917;SDS011;9084;50.956;3.106;2022-07-25T03:02:25;2.60;;;2.35;;
17917;SDS011;9084;50.956;3.106;2022-07-25T03:04:52;2.28;;;2.08;;
17917;SDS011;9084;50.956;3.106;2022-07-25T03:07:17;2.85;;;2.30;;
17917;SDS011;9084;50.956;3.106;2022-07-25T03:09:45;2.55;;;2.35;;
17917;SDS011;9084;50.956;3.106;2022-07-25T03:12:11;2.33;;;2.13;;
17917;SDS011;9084;50.956;3.106;2022-07-25T03:14:39;2.88;;;2.63;;
17917;SDS011;9084;50.956;3.106;2022-07-25T03:17:07;2.47;;;2.15;;
17917;SDS011;9084;50.956;3.106;2022-07-25T03:19:33;2.38;;;2.05;;
17917;SDS011;9084;50.956;3.106;2022-07-25T03:21:59;2.55;;;2.35;;
17917;SDS011;9084;50.956;3.106;2022-07-25T03:24:25;2.92;;;2.63;;
17917;SDS011;9084;50.956;3.106;2022-07-25T03:26:52;2.75;;;2.55;;
17917;SDS011;9084;50.956;3.106;2022-07-25T03:29:19;3.03;;;2.67;;
17917;SDS011;9084;50.956;3.106;2022-07-25T03:31:44;2.78;;;2.47;;
17917;SDS011;9084;50.956;3.106;2022-07-25T03:34:12;4.18;;;2.65;;
17917;SDS011;9084;50.956;3.106;2022-07-25T03:36:38;3.05;;;2.42;;
17917;SDS011;9084;50.956;3.106;2022-07-25T03:39:07;5.05;;;2.45;;
17917;SDS011;9084;50.956;3.106;2022-07-25T03:41:33;4.53;;;2.15;;
17917;SDS011;9084;50.956;3.106;2022-07-25T03:43:59;3.63;;;1.75;;
17917;SDS011;9084;50.956;3.106;2022-07-25T03:46:25;2.53;;;2.00;;
17917;SDS011;9084;50.956;3.106;2022-07-25T03:48:51;5.63;;;2.03;;
17917;SDS011;9084;50.956;3.106;2022-07-25T03:51:19;2.30;;;2.08;;
17917;SDS011;9084;50.956;3.106;2022-07-25T03:53:47;3.45;;;2.20;;
17917;SDS011;9084;50.956;3.106;2022-07-25T03:56:32;6.82;;;2.65;;
17917;SDS011;9084;50.956;3.106;2022-07-25T03:59:02;2.35;;;2.15;;
17917;SDS011;9084;50.956;3.106;2022-07-25T04:01:31;4.07;;;2.72;;
17917;SDS011;9084;50.956;3.106;2022-07-25T04:03:57;3.53;;;2.58;;
17917;SDS011;9084;50.956;3.106;2022-07-25T04:06:23;2.78;;;2.58;;
17917;SDS011;9084;50.956;3.106;2022-07-25T04:08:49;2.78;;;2.58;;
17917;SDS011;9084;50.956;3.106;2022-07-25T04:11:18;5.20;;;2.53;;
17917;SDS011;9084;50.956;3.106;2022-07-25T04:13:47;2.97;;;2.33;;
17917;SDS011;9084;50.956;3.106;2022-07-25T04:16:16;2.65;;;2.38;;
17917;SDS011;9084;50.956;3.106;2022-07-25T04:18:44;3.75;;;2.33;;
17917;SDS011;9084;50.956;3.106;2022-07-25T04:21:10;3.08;;;2.20;;
17917;SDS011;9084;50.956;3.106;2022-07-25T04:23:36;3.15;;;2.38;;
17917;SDS011;9084;50.956;3.106;2022-07-25T04:26:05;2.70;;;1.85;;
17917;SDS011;9084;50.956;3.106;2022-07-25T04:28:31;4.40;;;2.25;;
17917;SDS011;9084;50.956;3.106;2022-07-25T04:30:59;2.72;;;2.38;;
17917;SDS011;9084;50.956;3.106;2022-07-25T04:33:27;2.58;;;1.90;;
17917;SDS011;9084;50.956;3.106;2022-07-25T04:35:53;2.83;;;2.08;;
17917;SDS011;9084;50.956;3.106;2022-07-25T04:38:21;3.85;;;2.20;;
17917;SDS011;9084;50.956;3.106;2022-07-25T04:40:47;6.47;;;3.38;;
17917;SDS011;9084;50.956;3.106;2022-07-25T04:43:15;7.88;;;2.45;;
17917;SDS011;9084;50.956;3.106;2022-07-25T04:45:41;5.28;;;2.22;;
17917;SDS011;9084;50.956;3.106;2022-07-25T04:48:09;5.35;;;2.40;;
17917;SDS011;9084;50.956;3.106;2022-07-25T04:50:40;3.33;;;1.88;;
17917;SDS011;9084;50.956;3.106;2022-07-25T04:53:06;4.88;;;2.40;;
17917;SDS011;9084;50.956;3.106;2022-07-25T04:55:32;6.40;;;2.65;;
17917;SDS011;9084;50.956;3.106;2022-07-25T04:58:02;4.20;;;2.55;;
17917;SDS011;9084;50.956;3.106;2022-07-25T05:00:29;2.45;;;2.13;;
17917;SDS011;9084;50.956;3.106;2022-07-25T05:02:55;4.47;;;3.03;;
17917;SDS011;9084;50.956;3.106;2022-07-25T05:05:21;5.97;;;2.78;;
17917;SDS011;9084;50.956;3.106;2022-07-25T05:07:50;6.57;;;3.42;;
17917;SDS011;9084;50.956;3.106;2022-07-25T05:10:21;5.10;;;2.97;;
17917;SDS011;9084;50.956;3.106;2022-07-25T05:12:46;5.68;;;3.75;;
17917;SDS011;9084;50.956;3.106;2022-07-25T05:15:14;7.85;;;3.60;;
17917;SDS011;9084;50.956;3.106;2022-07-25T05:17:40;4.28;;;3.08;;
17917;SDS011;9084;50.956;3.106;2022-07-25T05:20:06;5.85;;;3.60;;
17917;SDS011;9084;50.956;3.106;2022-07-25T05:22:33;4.78;;;3.10;;
17917;SDS011;9084;50.956;3.106;2022-07-25T05:24:58;5.10;;;3.28;;
17917;SDS011;9084;50.956;3.106;2022-07-25T05:27:26;9.63;;;3.13;;
17917;SDS011;9084;50.956;3.106;2022-07-25T05:29:52;5.45;;;3.40;;
17917;SDS011;9084;50.956;3.106;2022-07-25T05:32:20;7.78;;;3.58;;
17917;SDS011;9084;50.956;3.106;2022-07-25T05:34:46;8.00;;;3.25;;
17917;SDS011;9084;50.956;3.106;2022-07-25T05:37:14;3.42;;;2.75;;
17917;SDS011;9084;50.956;3.106;2022-07-25T05:39:40;3.63;;;2.95;;
17917;SDS011;9084;50.956;3.106;2022-07-25T05:42:06;3.92;;;2.80;;
17917;SDS011;9084;50.956;3.106;2022-07-25T05:44:32;6.25;;;2.97;;
17917;SDS011;9084;50.956;3.106;2022-07-25T05:46:58;6.93;;;3.05;;
17917;SDS011;9084;50.956;3.106;2022-07-25T05:49:24;7.80;;;2.97;;
17917;SDS011;9084;50.956;3.106;2022-07-25T05:51:49;4.60;;;2.47;;
17917;SDS011;9084;50.956;3.106;2022-07-25T05:54:17;5.63;;;2.78;;
17917;SDS011;9084;50.956;3.106;2022-07-25T05:56:45;3.60;;;2.33;;
17917;SDS011;9084;50.956;3.106;2022-07-25T05:59:11;2.35;;;2.03;;
17917;SDS011;9084;50.956;3.106;2022-07-25T06:01:37;3.17;;;2.03;;
17917;SDS011;9084;50.956;3.106;2022-07-25T06:04:03;3.83;;;2.20;;
17917;SDS011;9084;50.956;3.106;2022-07-25T06:06:30;4.00;;;1.88;;
17917;SDS011;9084;50.956;3.106;2022-07-25T06:08:56;1.50;;;1.40;;
17917;SDS011;9084;50.956;3.106;2022-07-25T06:11:22;3.55;;;1.85;;
17917;SDS011;9084;50.956;3.106;2022-07-25T06:13:50;6.18;;;2.53;;
17917;SDS011;9084;50.956;3.106;2022-07-25T06:16:16;3.10;;;1.70;;
17917;SDS011;9084;50.956;3.106;2022-07-25T06:18:44;3.33;;;1.60;;
17917;SDS011;9084;50.956;3.106;2022-07-25T06:21:10;3.47;;;1.73;;
17917;SDS011;9084;50.956;3.106;2022-07-25T06:23:38;4.93;;;1.75;;
17917;SDS011;9084;50.956;3.106;2022-07-25T06:26:03;3.97;;;1.50;;
17917;SDS011;9084;50.956;3.106;2022-07-25T06:28:33;3.13;;;1.60;;
17917;SDS011;9084;50.956;3.106;2022-07-25T06:31:00;2.88;;;1.50;;
17917;SDS011;9084;50.956;3.106;2022-07-25T06:33:29;2.53;;;1.98;;
17917;SDS011;9084;50.956;3.106;2022-07-25T06:35:54;4.20;;;1.70;;
17917;SDS011;9084;50.956;3.106;2022-07-25T06:38:20;2.70;;;1.75;;
17917;SDS011;9084;50.956;3.106;2022-07-25T06:40:46;5.13;;;1.80;;
17917;SDS011;9084;50.956;3.106;2022-07-25T06:43:12;3.20;;;1.48;;
17917;SDS011;9084;50.956;3.106;2022-07-25T06:45:38;3.40;;;1.85;;
17917;SDS011;9084;50.956;3.106;2022-07-25T06:48:10;6.22;;;1.70;;
17917;SDS011;9084;50.956;3.106;2022-07-25T06:50:36;5.57;;;2.10;;
17917;SDS011;9084;50.956;3.106;2022-07-25T06:53:04;2.33;;;1.42;;
17917;SDS011;9084;50.956;3.106;2022-07-25T06:55:29;3.53;;;1.88;;
17917;SDS011;9084;50.956;3.106;2022-07-25T06:57:58;5.47;;;1.95;;
17917;SDS011;9084;50.956;3.106;2022-07-25T07:00:26;3.90;;;1.90;;
17917;SDS011;9084;50.956;3.106;2022-07-25T07:02:56;4.05;;;1.77;;
17917;SDS011;9084;50.956;3.106;2022-07-25T07:05:28;2.67;;;1.90;;
17917;SDS011;9084;50.956;3.106;2022-07-25T07:07:56;5.10;;;2.13;;
17917;SDS011;9084;50.956;3.106;2022-07-25T07:10:22;5.82;;;2.25;;
17917;SDS011;9084;50.956;3.106;2022-07-25T07:12:49;3.38;;;1.70;;
17917;SDS011;9084;50.956;3.106;2022-07-25T07:15:15;5.05;;;1.98;;
17917;SDS011;9084;50.956;3.106;2022-07-25T07:17:41;4.13;;;1.85;;
17917;SDS011;9084;50.956;3.106;2022-07-25T07:20:11;5.70;;;2.03;;
17917;SDS011;9084;50.956;3.106;2022-07-25T07:22:43;5.40;;;2.00;;
17917;SDS011;9084;50.956;3.106;2022-07-25T07:25:11;5.70;;;2.35;;
17917;SDS011;9084;50.956;3.106;2022-07-25T07:27:41;5.63;;;2.38;;
17917;SDS011;9084;50.956;3.106;2022-07-25T07:30:08;6.82;;;2.35;;
17917;SDS011;9084;50.956;3.106;2022-07-25T07:32:35;6.72;;;2.55;;
17917;SDS011;9084;50.956;3.106;2022-07-25T07:35:03;4.82;;;2.10;;
17917;SDS011;9084;50.956;3.106;2022-07-25T07:37:29;6.43;;;2.30;;
17917;SDS011;9084;50.956;3.106;2022-07-25T07:39:55;5.93;;;2.35;;
17917;SDS011;9084;50.956;3.106;2022-07-25T07:42:23;4.70;;;1.88;;
17917;SDS011;9084;50.956;3.106;2022-07-25T07:44:49;5.35;;;2.47;;
17917;SDS011;9084;50.956;3.106;2022-07-25T07:47:15;5.20;;;2.47;;
17917;SDS011;9084;50.956;3.106;2022-07-25T07:49:41;5.60;;;2.38;;
17917;SDS011;9084;50.956;3.106;2022-07-25T07:52:07;5.43;;;2.10;;
17917;SDS011;9084;50.956;3.106;2022-07-25T07:54:33;7.65;;;2.90;;
17917;SDS011;9084;50.956;3.106;2022-07-25T07:57:20;7.28;;;2.85;;
17917;SDS011;9084;50.956;3.106;2022-07-25T07:59:46;5.97;;;2.40;;
17917;SDS011;9084;50.956;3.106;2022-07-25T08:02:13;6.55;;;2.78;;
17917;SDS011;9084;50.956;3.106;2022-07-25T08:04:42;7.63;;;2.60;;
17917;SDS011;9084;50.956;3.106;2022-07-25T08:07:12;7.75;;;2.75;;
17917;SDS011;9084;50.956;3.106;2022-07-25T08:09:38;5.47;;;2.25;;
17917;SDS011;9084;50.956;3.106;2022-07-25T08:12:04;6.55;;;2.78;;
17917;SDS011;9084;50.956;3.106;2022-07-25T08:14:30;6.07;;;2.22;;
17917;SDS011;9084;50.956;3.106;2022-07-25T08:16:58;7.80;;;2.40;;
17917;SDS011;9084;50.956;3.106;2022-07-25T08:19:24;3.85;;;2.20;;
17917;SDS011;9084;50.956;3.106;2022-07-25T08:21:50;5.05;;;2.10;;
17917;SDS011;9084;50.956;3.106;2022-07-25T08:24:16;4.43;;;2.30;;
17917;SDS011;9084;50.956;3.106;2022-07-25T08:26:41;4.97;;;2.47;;
17917;SDS011;9084;50.956;3.106;2022-07-25T08:29:07;9.15;;;2.60;;
17917;SDS011;9084;50.956;3.106;2022-07-25T08:31:32;4.28;;;2.03;;
17917;SDS011;9084;50.956;3.106;2022-07-25T08:33:58;3.60;;;1.95;;
17917;SDS011;9084;50.956;3.106;2022-07-25T08:36:24;6.38;;;2.33;;
17917;SDS011;9084;50.956;3.106;2022-07-25T08:38:52;5.63;;;1.85;;
17917;SDS011;9084;50.956;3.106;2022-07-25T08:41:20;3.15;;;1.85;;
17917;SDS011;9084;50.956;3.106;2022-07-25T08:43:47;5.07;;;1.88;;
17917;SDS011;9084;50.956;3.106;2022-07-25T08:46:19;4.03;;;1.60;;
17917;SDS011;9084;50.956;3.106;2022-07-25T08:48:45;4.80;;;2.33;;
17917;SDS011;9084;50.956;3.106;2022-07-25T08:51:12;5.85;;;2.60;;
17917;SDS011;9084;50.956;3.106;2022-07-25T08:53:41;7.63;;;2.22;;
17917;SDS011;9084;50.956;3.106;2022-07-25T08:56:07;3.78;;;1.92;;
17917;SDS011;9084;50.956;3.106;2022-07-25T08:58:33;3.63;;;1.90;;
17917;SDS011;9084;50.956;3.106;2022-07-25T09:00:59;5.82;;;2.08;;
17917;SDS011;9084;50.956;3.106;2022-07-25T09:03:25;3.30;;;1.90;;
17917;SDS011;9084;50.956;3.106;2022-07-25T09:05:53;4.75;;;2.28;;
17917;SDS011;9084;50.956;3.106;2022-07-25T09:08:22;6.18;;;2.25;;
17917;SDS011;9084;50.956;3.106;2022-07-25T09:10:49;8.65;;;2.80;;
17917;SDS011;9084;50.956;3.106;2022-07-25T09:13:17;5.28;;;2.50;;
17917;SDS011;9084;50.956;3.106;2022-07-25T09:15:45;4.47;;;1.90;;
17917;SDS011;9084;50.956;3.106;2022-07-25T09:18:16;4.75;;;2.38;;
17917;SDS011;9084;50.956;3.106;2022-07-25T09:20:48;5.20;;;2.10;;
17917;SDS011;9084;50.956;3.106;2022-07-25T09:23:34;4.55;;;2.30;;
17917;SDS011;9084;50.956;3.106;2022-07-25T09:26:07;5.30;;;1.90;;
17917;SDS011;9084;50.956;3.106;2022-07-25T09:31:15;5.60;;;2.17;;
17917;SDS011;9084;50.956;3.106;2022-07-25T09:33:52;3.63;;;2.17;;
17917;SDS011;9084;50.956;3.106;2022-07-25T09:36:24;3.33;;;1.92;;
17917;SDS011;9084;50.956;3.106;2022-07-25T09:38:59;4.95;;;2.20;;
17917;SDS011;9084;50.956;3.106;2022-07-25T09:41:36;6.07;;;2.20;;
17917;SDS011;9084;50.956;3.106;2022-07-25T09:44:19;7.82;;;2.13;;
17917;SDS011;9084;50.956;3.106;2022-07-25T09:46:53;5.50;;;2.20;;
17917;SDS011;9084;50.956;3.106;2022-07-25T09:49:19;4.43;;;2.22;;
17917;SDS011;9084;50.956;3.106;2022-07-25T09:51:45;4.00;;;2.20;;
17917;SDS011;9084;50.956;3.106;2022-07-25T09:54:14;6.38;;;1.90;;
17917;SDS011;9084;50.956;3.106;2022-07-25T09:56:40;7.65;;;2.60;;
17917;SDS011;9084;50.956;3.106;2022-07-25T09:59:08;10.68;;;2.45;;
17917;SDS011;9084;50.956;3.106;2022-07-25T10:01:38;6.05;;;1.70;;
17917;SDS011;9084;50.956;3.106;2022-07-25T10:04:21;8.85;;;2.17;;
17917;SDS011;9084;50.956;3.106;2022-07-25T10:07:17;6.75;;;2.05;;
17917;SDS011;9084;50.956;3.106;2022-07-25T10:09:47;5.63;;;1.85;;
17917;SDS011;9084;50.956;3.106;2022-07-25T10:12:19;3.92;;;2.00;;
17917;SDS011;9084;50.956;3.106;2022-07-25T10:15:03;9.40;;;2.25;;
17917;SDS011;9084;50.956;3.106;2022-07-25T10:17:32;4.70;;;2.13;;
17917;SDS011;9084;50.956;3.106;2022-07-25T10:19:58;5.80;;;1.83;;
17917;SDS011;9084;50.956;3.106;2022-07-25T10:22:38;5.65;;;1.67;;
17917;SDS011;9084;50.956;3.106;2022-07-25T10:25:12;4.82;;;2.13;;
17917;SDS011;9084;50.956;3.106;2022-07-25T10:27:51;5.30;;;1.80;;
17917;SDS011;9084;50.956;3.106;2022-07-25T10:30:36;3.50;;;2.08;;
17917;SDS011;9084;50.956;3.106;2022-07-25T10:33:10;6.63;;;1.85;;
17917;SDS011;9084;50.956;3.106;2022-07-25T10:35:42;7.18;;;2.10;;
17917;SDS011;9084;50.956;3.106;2022-07-25T10:38:08;6.80;;;2.10;;
17917;SDS011;9084;50.956;3.106;2022-07-25T10:40:38;6.85;;;2.22;;
17917;SDS011;9084;50.956;3.106;2022-07-25T10:43:10;4.70;;;2.00;;
17917;SDS011;9084;50.956;3.106;2022-07-25T10:45:53;6.60;;;1.77;;
17917;SDS011;9084;50.956;3.106;2022-07-25T10:48:23;8.48;;;2.40;;
17917;SDS011;9084;50.956;3.106;2022-07-25T10:50:56;6.72;;;1.50;;
17917;SDS011;9084;50.956;3.106;2022-07-25T10:53:29;3.10;;;1.50;;
17917;SDS011;9084;50.956;3.106;2022-07-25T11:01:10;4.03;;;1.55;;
17917;SDS011;9084;50.956;3.106;2022-07-25T11:03:38;8.57;;;1.83;;
17917;SDS011;9084;50.956;3.106;2022-07-25T11:06:05;5.22;;;1.88;;
17917;SDS011;9084;50.956;3.106;2022-07-25T11:08:33;7.18;;;1.42;;
17917;SDS011;9084;50.956;3.106;2022-07-25T11:11:00;5.53;;;1.30;;
17917;SDS011;9084;50.956;3.106;2022-07-25T11:13:26;6.20;;;1.40;;
17917;SDS011;9084;50.956;3.106;2022-07-25T11:15:57;5.20;;;1.40;;
17917;SDS011;9084;50.956;3.106;2022-07-25T11:18:33;9.73;;;2.08;;
17917;SDS011;9084;50.956;3.106;2022-07-25T11:21:05;14.30;;;1.98;;
17917;SDS011;9084;50.956;3.106;2022-07-25T11:23:32;9.55;;;1.63;;
17917;SDS011;9084;50.956;3.106;2022-07-25T11:26:03;9.00;;;1.52;;
17917;SDS011;9084;50.956;3.106;2022-07-25T11:28:39;12.25;;;1.90;;
17917;SDS011;9084;50.956;3.106;2022-07-25T11:31:12;10.50;;;1.70;;
17917;SDS011;9084;50.956;3.106;2022-07-25T11:33:39;12.52;;;1.95;;
17917;SDS011;9084;50.956;3.106;2022-07-25T11:36:11;5.70;;;1.95;;
17917;SDS011;9084;50.956;3.106;2022-07-25T11:38:40;4.88;;;2.00;;
17917;SDS011;9084;50.956;3.106;2022-07-25T11:41:11;6.43;;;2.05;;
17917;SDS011;9084;50.956;3.106;2022-07-25T11:43:37;6.70;;;1.83;;
17917;SDS011;9084;50.956;3.106;2022-07-25T11:46:11;4.22;;;1.70;;
17917;SDS011;9084;50.956;3.106;2022-07-25T11:48:38;2.20;;;1.10;;
17917;SDS011;9084;50.956;3.106;2022-07-25T11:51:08;4.18;;;1.20;;
17917;SDS011;9084;50.956;3.106;2022-07-25T11:53:43;3.85;;;1.23;;
17917;SDS011;9084;50.956;3.106;2022-07-25T11:58:41;2.47;;;0.80;;
17917;SDS011;9084;50.956;3.106;2022-07-25T12:01:12;2.47;;;0.85;;
17917;SDS011;9084;50.956;3.106;2022-07-25T12:03:39;2.75;;;0.70;;
17917;SDS011;9084;50.956;3.106;2022-07-25T12:06:09;7.03;;;0.90;;
17917;SDS011;9084;50.956;3.106;2022-07-25T12:08:40;3.45;;;0.60;;
17917;SDS011;9084;50.956;3.106;2022-07-25T12:11:17;3.28;;;0.70;;
17917;SDS011;9084;50.956;3.106;2022-07-25T12:13:48;8.32;;;1.13;;
17917;SDS011;9084;50.956;3.106;2022-07-25T12:16:15;8.07;;;1.02;;
17917;SDS011;9084;50.956;3.106;2022-07-25T12:18:43;4.20;;;0.70;;
17917;SDS011;9084;50.956;3.106;2022-07-25T12:21:11;3.10;;;0.57;;
17917;SDS011;9084;50.956;3.106;2022-07-25T12:23:39;3.75;;;1.00;;
17917;SDS011;9084;50.956;3.106;2022-07-25T12:26:06;4.63;;;0.60;;
17917;SDS011;9084;50.956;3.106;2022-07-25T12:28:32;6.53;;;0.90;;
17917;SDS011;9084;50.956;3.106;2022-07-25T12:30:57;5.07;;;0.80;;
17917;SDS011;9084;50.956;3.106;2022-07-25T12:33:23;1.48;;;0.60;;
17917;SDS011;9084;50.956;3.106;2022-07-25T12:35:48;7.05;;;1.20;;
17917;SDS011;9084;50.956;3.106;2022-07-25T12:38:17;5.90;;;1.05;;
17917;SDS011;9084;50.956;3.106;2022-07-25T12:40:45;2.88;;;0.98;;
17917;SDS011;9084;50.956;3.106;2022-07-25T12:43:11;4.53;;;1.02;;
17917;SDS011;9084;50.956;3.106;2022-07-25T12:45:38;4.55;;;0.80;;
17917;SDS011;9084;50.956;3.106;2022-07-25T12:48:04;5.15;;;1.13;;
17917;SDS011;9084;50.956;3.106;2022-07-25T12:50:30;5.88;;;1.20;;
17917;SDS011;9084;50.956;3.106;2022-07-25T12:52:57;3.10;;;0.95;;
17917;SDS011;9084;50.956;3.106;2022-07-25T12:55:24;3.42;;;1.00;;
17917;SDS011;9084;50.956;3.106;2022-07-25T12:57:50;5.22;;;1.10;;
17917;SDS011;9084;50.956;3.106;2022-07-25T13:00:17;2.78;;;0.75;;
17917;SDS011;9084;50.956;3.106;2022-07-25T13:02:45;7.28;;;1.23;;
17917;SDS011;9084;50.956;3.106;2022-07-25T13:05:19;5.20;;;0.75;;
17917;SDS011;9084;50.956;3.106;2022-07-25T13:07:46;10.93;;;1.42;;
17917;SDS011;9084;50.956;3.106;2022-07-25T13:10:16;3.63;;;1.17;;
17917;SDS011;9084;50.956;3.106;2022-07-25T13:12:42;3.63;;;0.95;;
17917;SDS011;9084;50.956;3.106;2022-07-25T13:15:11;4.57;;;0.95;;
17917;SDS011;9084;50.956;3.106;2022-07-25T13:17:37;1.80;;;0.70;;
17917;SDS011;9084;50.956;3.106;2022-07-25T13:20:04;3.38;;;0.80;;
17917;SDS011;9084;50.956;3.106;2022-07-25T13:22:36;4.47;;;0.75;;
17917;SDS011;9084;50.956;3.106;2022-07-25T13:25:02;2.58;;;0.70;;
17917;SDS011;9084;50.956;3.106;2022-07-25T13:27:28;2.78;;;0.70;;
17917;SDS011;9084;50.956;3.106;2022-07-25T13:29:56;2.03;;;0.60;;
17917;SDS011;9084;50.956;3.106;2022-07-25T13:32:22;4.72;;;1.20;;
17917;SDS011;9084;50.956;3.106;2022-07-25T13:34:50;2.30;;;0.60;;
17917;SDS011;9084;50.956;3.106;2022-07-25T13:37:15;1.42;;;0.70;;
17917;SDS011;9084;50.956;3.106;2022-07-25T13:39:41;3.45;;;0.90;;
17917;SDS011;9084;50.956;3.106;2022-07-25T13:42:09;4.72;;;0.73;;
17917;SDS011;9084;50.956;3.106;2022-07-25T13:44:38;1.80;;;0.57;;
17917;SDS011;9084;50.956;3.106;2022-07-25T13:47:04;4.80;;;0.90;;
17917;SDS011;9084;50.956;3.106;2022-07-25T13:49:30;3.38;;;0.70;;
17917;SDS011;9084;50.956;3.106;2022-07-25T13:51:59;4.40;;;1.10;;
17917;SDS011;9084;50.956;3.106;2022-07-25T13:54:26;3.67;;;0.73;;
17917;SDS011;9084;50.956;3.106;2022-07-25T13:56:55;3.25;;;0.90;;
17917;SDS011;9084;50.956;3.106;2022-07-25T13:59:21;3.60;;;0.90;;
17917;SDS011;9084;50.956;3.106;2022-07-25T14:01:47;2.53;;;1.00;;
17917;SDS011;9084;50.956;3.106;2022-07-25T14:04:13;5.32;;;1.20;;
17917;SDS011;9084;50.956;3.106;2022-07-25T14:06:41;6.22;;;1.08;;
17917;SDS011;9084;50.956;3.106;2022-07-25T14:09:07;6.93;;;0.90;;
17917;SDS011;9084;50.956;3.106;2022-07-25T14:11:33;6.63;;;0.85;;
17917;SDS011;9084;50.956;3.106;2022-07-25T14:13:59;6.43;;;0.77;;
17917;SDS011;9084;50.956;3.106;2022-07-25T14:16:24;2.80;;;0.93;;
17917;SDS011;9084;50.956;3.106;2022-07-25T14:18:50;4.25;;;1.05;;
17917;SDS011;9084;50.956;3.106;2022-07-25T14:21:18;2.22;;;0.93;;
17917;SDS011;9084;50.956;3.106;2022-07-25T14:23:43;4.05;;;1.13;;
17917;SDS011;9084;50.956;3.106;2022-07-25T14:26:09;6.10;;;1.10;;
17917;SDS011;9084;50.956;3.106;2022-07-25T14:28:38;6.63;;;1.13;;
17917;SDS011;9084;50.956;3.106;2022-07-25T14:31:03;2.85;;;0.70;;
17917;SDS011;9084;50.956;3.106;2022-07-25T14:33:29;1.83;;;0.90;;
17917;SDS011;9084;50.956;3.106;2022-07-25T14:36:01;4.07;;;0.80;;
17917;SDS011;9084;50.956;3.106;2022-07-25T14:38:27;3.10;;;0.77;;
17917;SDS011;9084;50.956;3.106;2022-07-25T14:40:56;3.58;;;1.20;;
17917;SDS011;9084;50.956;3.106;2022-07-25T14:43:21;3.42;;;0.80;;
17917;SDS011;9084;50.956;3.106;2022-07-25T14:45:47;2.75;;;0.60;;
17917;SDS011;9084;50.956;3.106;2022-07-25T14:48:13;3.95;;;0.75;;
17917;SDS011;9084;50.956;3.106;2022-07-25T14:50:38;3.35;;;0.80;;
17917;SDS011;9084;50.956;3.106;2022-07-25T14:53:07;2.50;;;0.73;;
17917;SDS011;9084;50.956;3.106;2022-07-25T14:55:33;3.25;;;0.98;;
17917;SDS011;9084;50.956;3.106;2022-07-25T14:58:02;3.80;;;1.10;;
17917;SDS011;9084;50.956;3.106;2022-07-25T15:00:29;2.63;;;0.57;;
17917;SDS011;9084;50.956;3.106;2022-07-25T15:02:55;2.35;;;0.98;;
17917;SDS011;9084;50.956;3.106;2022-07-25T15:05:24;3.80;;;0.98;;
17917;SDS011;9084;50.956;3.106;2022-07-25T15:07:50;4.70;;;0.80;;
17917;SDS011;9084;50.956;3.106;2022-07-25T15:10:16;7.35;;;0.70;;
17917;SDS011;9084;50.956;3.106;2022-07-25T15:12:42;3.85;;;1.25;;
17917;SDS011;9084;50.956;3.106;2022-07-25T15:15:08;4.47;;;0.95;;